Time;durP1;ratioP1;P1;durP2;ratioP2;P2;SDS_P1;SDS_P2;PMS_P1;PMS_P2;Temp;Humidity;BMP_temperature;BMP_pressure;BME280_temperature;BME280_humidity;BME280_pressure;Samples;Min_cycle;Max_cycle;Signal;HPM_P1;HPM_P2
2022/05/01 00:00:35;;;;;;;7.68;3.50;;;11.90;73.00;;;;;;5068249;28;20648;-65
2022/05/01 00:03:02;;;;;;;5.40;2.97;;;11.90;73.20;;;;;;5070909;28;20108;-63
2022/05/01 00:05:35;;;;;;;9.05;2.80;;;11.90;73.40;;;;;;5068314;28;20148;-63
2022/05/01 00:08:04;;;;;;;7.20;2.83;;;11.80;73.70;;;;;;5070510;28;20043;-65
2022/05/01 00:10:31;;;;;;;6.43;2.63;;;11.80;73.70;;;;;;5068408;28;20071;-64
2022/05/01 00:12:59;;;;;;;5.75;2.70;;;11.80;73.70;;;;;;5071407;28;20045;-65
2022/05/01 00:15:27;;;;;;;5.72;2.92;;;11.80;73.60;;;;;;5070114;28;20557;-65
2022/05/01 00:17:54;;;;;;;6.20;2.88;;;11.80;73.60;;;;;;5071352;28;20056;-65
2022/05/01 00:20:22;;;;;;;4.78;2.70;;;11.80;73.60;;;;;;5070282;28;20064;-65
2022/05/01 00:22:48;;;;;;;5.15;2.60;;;11.80;73.50;;;;;;5071682;28;20059;-66
2022/05/01 00:25:15;;;;;;;5.35;3.00;;;11.80;73.50;;;;;;5071818;28;20573;-66
2022/05/01 00:27:42;;;;;;;7.15;3.08;;;11.80;73.50;;;;;;5069280;28;20051;-66
2022/05/01 00:30:13;;;;;;;5.10;2.63;;;11.80;73.30;;;;;;5070593;28;20127;-65
2022/05/01 00:38:06;;;;;;;6.38;2.92;;;11.70;73.30;;;;;;5040252;28;20139;-66
2022/05/01 00:40:33;;;;;;;6.90;2.83;;;11.70;73.40;;;;;;5070495;28;20558;-65
2022/05/01 00:43:02;;;;;;;7.45;2.53;;;11.70;73.50;;;;;;5054906;28;20114;-63
2022/05/01 00:45:32;;;;;;;7.10;3.20;;;11.60;73.40;;;;;;5047945;28;20482;-68
2022/05/01 00:47:59;;;;;;;5.87;2.90;;;11.60;73.50;;;;;;5045192;28;20059;-65
2022/05/01 00:50:26;;;;;;;7.40;2.78;;;11.60;73.40;;;;;;5049823;28;20055;-64
2022/05/01 00:52:54;;;;;;;7.68;3.25;;;11.60;73.50;;;;;;5048461;28;20049;-66
2022/05/01 00:55:22;;;;;;;6.97;3.10;;;11.60;73.60;;;;;;5046126;28;20052;-65
2022/05/01 00:57:49;;;;;;;6.53;3.20;;;11.60;73.60;;;;;;5044759;28;20584;-66
2022/05/01 01:00:19;;;;;;;6.45;2.85;;;11.50;73.70;;;;;;5043790;28;20045;-66
2022/05/01 01:02:50;;;;;;;7.80;3.33;;;11.50;73.80;;;;;;5048085;28;20137;-66
2022/05/01 01:05:17;;;;;;;6.10;2.60;;;11.40;74.10;;;;;;5029255;28;20140;-64
2022/05/01 01:07:44;;;;;;;5.50;3.00;;;11.40;74.30;;;;;;5046955;28;20293;-65
2022/05/01 01:10:12;;;;;;;5.28;3.00;;;11.30;74.40;;;;;;5048109;28;20047;-64
2022/05/01 01:12:57;;;;;;;4.63;2.35;;;11.30;74.50;;;;;;5042009;28;20507;-64
2022/05/01 01:15:25;;;;;;;5.53;2.90;;;11.30;74.60;;;;;;5039665;28;20490;-65
2022/05/01 01:17:54;;;;;;;7.53;3.38;;;11.20;74.80;;;;;;5042226;28;20043;-66
2022/05/01 01:20:24;;;;;;;5.20;2.72;;;11.30;74.70;;;;;;5039557;28;20045;-64
2022/05/01 01:22:53;;;;;;;7.03;2.97;;;11.20;74.90;;;;;;5041359;28;20037;-65
2022/05/01 01:25:22;;;;;;;6.22;2.38;;;11.20;75.00;;;;;;5038174;28;20503;-65
2022/05/01 01:27:50;;;;;;;5.13;2.83;;;11.20;75.10;;;;;;5047605;28;20132;-64
2022/05/01 01:33:08;;;;;;;7.63;2.63;;;11.10;75.10;;;;;;4993069;28;20064;-65
2022/05/01 01:35:38;;;;;;;7.00;3.20;;;11.10;75.10;;;;;;5035901;28;20050;-66
2022/05/01 01:38:07;;;;;;;6.63;2.67;;;11.10;75.10;;;;;;5046599;28;20040;-65
2022/05/01 01:40:38;;;;;;;5.28;2.88;;;11.10;75.30;;;;;;5046367;28;20044;-65
2022/05/01 01:43:07;;;;;;;5.10;2.58;;;11.10;75.30;;;;;;5063490;28;20067;-66
2022/05/01 01:45:34;;;;;;;7.43;2.88;;;11.00;75.20;;;;;;5068240;28;20045;-65
2022/05/01 01:48:10;;;;;;;5.25;2.78;;;11.00;75.30;;;;;;5068350;28;20036;-65
2022/05/01 01:50:38;;;;;;;4.97;2.45;;;10.90;75.30;;;;;;5070466;28;20094;-66
2022/05/01 01:53:07;;;;;;;7.85;2.80;;;10.90;75.40;;;;;;5052119;28;20049;-63
2022/05/01 01:55:35;;;;;;;6.80;2.35;;;10.90;75.40;;;;;;5065008;28;20160;-66
2022/05/01 01:58:02;;;;;;;5.00;2.60;;;10.80;75.50;;;;;;5067333;28;20500;-65
2022/05/01 02:00:30;;;;;;;4.88;2.53;;;10.80;75.60;;;;;;5064368;28;20048;-65
2022/05/01 02:03:00;;;;;;;5.93;2.88;;;10.80;75.60;;;;;;5068748;28;20039;-67
2022/05/01 02:05:29;;;;;;;7.30;2.97;;;10.80;75.60;;;;;;5067564;28;20035;-67
2022/05/01 02:07:56;;;;;;;5.82;2.47;;;10.80;75.60;;;;;;5064017;28;20672;-68
2022/05/01 02:10:24;;;;;;;5.00;2.70;;;10.80;75.70;;;;;;5066457;28;20063;-65
2022/05/01 02:12:52;;;;;;;5.63;2.53;;;10.80;75.80;;;;;;5068165;28;20044;-65
2022/05/01 02:15:19;;;;;;;6.72;2.67;;;10.80;75.80;;;;;;5068492;28;20049;-64
2022/05/01 02:17:48;;;;;;;7.00;2.70;;;10.70;76.00;;;;;;5067465;28;20044;-66
2022/05/01 02:20:15;;;;;;;5.78;2.72;;;10.70;76.00;;;;;;5069403;28;20409;-64
2022/05/01 02:22:43;;;;;;;6.53;2.20;;;10.70;76.10;;;;;;5068375;28;20076;-66
2022/05/01 02:25:10;;;;;;;5.30;2.63;;;10.70;76.10;;;;;;5068882;28;20051;-64
2022/05/01 02:27:39;;;;;;;5.35;2.92;;;10.80;76.20;;;;;;5069892;28;20417;-66
2022/05/01 02:30:07;;;;;;;7.63;2.40;;;10.70;76.30;;;;;;5068736;28;20045;-65
2022/05/01 02:32:36;;;;;;;6.43;2.70;;;10.80;76.10;;;;;;5068693;28;20880;-65
2022/05/01 02:35:04;;;;;;;5.50;2.67;;;10.80;76.30;;;;;;5066976;28;20649;-65
2022/05/01 02:37:31;;;;;;;5.75;2.55;;;10.70;76.20;;;;;;5068043;28;20128;-64
2022/05/01 02:39:58;;;;;;;8.15;2.75;;;10.70;76.30;;;;;;5068097;28;20044;-65
2022/05/01 02:42:25;;;;;;;4.20;2.40;;;10.70;76.30;;;;;;5056477;28;20091;-66
2022/05/01 02:44:53;;;;;;;7.78;2.78;;;10.70;76.30;;;;;;5045826;28;20045;-67
2022/05/01 02:47:20;;;;;;;5.25;2.90;;;10.70;76.40;;;;;;5040293;28;20537;-64
2022/05/01 02:49:47;;;;;;;6.50;3.00;;;10.70;76.60;;;;;;5041278;28;20050;-66
2022/05/01 02:52:14;;;;;;;6.53;2.88;;;10.70;76.50;;;;;;5045058;28;20068;-65
2022/05/01 02:54:41;;;;;;;5.22;2.63;;;10.70;76.40;;;;;;5042444;28;20124;-65
2022/05/01 02:57:08;;;;;;;4.88;2.40;;;10.70;76.40;;;;;;5036435;28;20467;-66
2022/05/01 02:59:35;;;;;;;4.03;2.13;;;10.60;76.60;;;;;;5042558;28;20475;-66
2022/05/01 03:02:04;;;;;;;4.63;2.50;;;10.60;76.60;;;;;;5036592;28;20045;-65
2022/05/01 03:04:30;;;;;;;6.40;2.50;;;10.60;76.50;;;;;;5045835;28;20044;-66
2022/05/01 03:06:57;;;;;;;9.13;3.17;;;10.60;76.60;;;;;;5045757;28;20033;-67
2022/05/01 03:09:24;;;;;;;5.05;2.70;;;10.60;76.60;;;;;;5044524;28;20053;-65
2022/05/01 03:11:51;;;;;;;5.80;2.72;;;10.60;76.70;;;;;;5037158;28;20064;-65
2022/05/01 03:14:19;;;;;;;5.55;2.47;;;10.60;76.70;;;;;;5049460;28;20450;-64
2022/05/01 03:16:46;;;;;;;6.85;2.40;;;10.60;76.70;;;;;;5029214;28;20056;-64
2022/05/01 03:22:14;;;;;;;5.65;2.90;;;10.60;76.80;;;;;;5052835;28;20045;-63
2022/05/01 03:24:42;;;;;;;4.40;2.25;;;10.60;76.80;;;;;;5049234;28;20061;-64
2022/05/01 03:27:11;;;;;;;5.88;2.97;;;10.60;77.00;;;;;;5043946;28;20075;-63
2022/05/01 03:29:39;;;;;;;8.13;3.10;;;10.50;77.00;;;;;;5047301;28;20056;-65
2022/05/01 03:32:07;;;;;;;6.28;2.83;;;10.50;77.20;;;;;;5045504;28;20059;-64
2022/05/01 03:34:37;;;;;;;6.05;2.90;;;10.50;77.20;;;;;;5041317;28;20061;-65
2022/05/01 03:37:07;;;;;;;4.53;2.50;;;10.50;77.30;;;;;;5045067;28;20045;-63
2022/05/01 03:39:35;;;;;;;4.78;2.78;;;10.50;77.30;;;;;;5047988;28;20041;-64
2022/05/01 03:42:02;;;;;;;5.90;2.85;;;10.50;77.30;;;;;;5057271;28;20052;-65
2022/05/01 03:44:29;;;;;;;4.63;2.25;;;10.50;77.40;;;;;;5077324;28;20120;-64
2022/05/01 03:46:56;;;;;;;7.82;2.95;;;10.40;77.60;;;;;;5075314;28;20048;-65
2022/05/01 03:49:23;;;;;;;5.50;2.78;;;10.30;77.70;;;;;;5071550;28;20048;-65
2022/05/01 03:51:51;;;;;;;7.60;2.90;;;10.30;77.70;;;;;;5080256;28;20044;-65
2022/05/01 03:54:18;;;;;;;5.50;2.72;;;10.30;77.70;;;;;;5076411;28;20041;-65
2022/05/01 03:56:45;;;;;;;4.93;2.70;;;10.20;77.80;;;;;;5073280;28;20079;-65
2022/05/01 03:59:12;;;;;;;5.88;2.90;;;10.20;77.70;;;;;;5080955;28;20119;-64
2022/05/01 04:01:40;;;;;;;4.65;2.55;;;10.20;77.70;;;;;;5074622;28;20120;-64
2022/05/01 04:04:07;;;;;;;5.68;2.83;;;10.20;77.70;;;;;;5073195;28;20045;-65
2022/05/01 04:06:33;;;;;;;4.97;2.05;;;10.20;77.70;;;;;;5070190;28;20056;-65
2022/05/01 04:09:02;;;;;;;5.10;2.70;;;10.20;77.80;;;;;;5080451;28;20119;-65
2022/05/01 04:11:30;;;;;;;5.97;2.53;;;10.10;78.10;;;;;;5080668;28;20557;-64
2022/05/01 04:13:57;;;;;;;4.88;2.35;;;10.20;78.00;;;;;;5076154;28;20051;-64
2022/05/01 04:16:24;;;;;;;3.92;2.25;;;10.20;77.90;;;;;;5074444;28;20047;-66
2022/05/01 04:18:51;;;;;;;5.80;2.17;;;10.20;77.90;;;;;;5070583;28;20071;-65
2022/05/01 04:21:18;;;;;;;5.40;2.47;;;10.20;77.90;;;;;;5075166;28;20040;-64
2022/05/01 04:23:45;;;;;;;6.65;2.47;;;10.10;78.00;;;;;;5074828;28;20111;-68
2022/05/01 04:26:13;;;;;;;4.18;2.33;;;10.10;78.10;;;;;;5075638;28;20055;-66
2022/05/01 04:29:36;;;;;;;6.40;2.65;;;10.10;78.10;;;;;;5071875;28;20044;-66
2022/05/01 04:31:28;;;;;;;5.00;2.25;;;10.10;78.10;;;;;;5075308;28;20062;-67
2022/05/01 04:33:55;;;;;;;3.63;2.30;;;10.10;78.20;;;;;;5074001;28;20145;-66
2022/05/01 04:36:22;;;;;;;5.20;2.33;;;10.10;78.10;;;;;;5042192;28;20447;-65
2022/05/01 04:38:50;;;;;;;5.93;2.13;;;10.10;78.30;;;;;;5071877;28;20123;-65
2022/05/01 04:41:18;;;;;;;3.83;1.83;;;10.10;78.20;;;;;;5076002;28;20393;-64
2022/05/01 04:43:46;;;;;;;5.65;2.45;;;10.10;78.20;;;;;;5071606;28;20056;-64
2022/05/01 04:46:14;;;;;;;6.43;2.72;;;10.10;78.30;;;;;;5071134;28;20467;-63
2022/05/01 04:48:40;;;;;;;3.88;1.98;;;10.10;78.40;;;;;;5067652;28;20044;-64
2022/05/01 04:51:09;;;;;;;4.80;2.13;;;10.10;78.30;;;;;;5068926;28;20178;-65
2022/05/01 04:53:35;;;;;;;5.05;2.60;;;10.10;78.50;;;;;;5071155;28;20401;-65
2022/05/01 04:58:47;;;;;;;6.55;2.70;;;10.10;78.70;;;;;;5053620;28;20476;-65
2022/05/01 05:01:14;;;;;;;3.83;2.30;;;10.20;78.60;;;;;;5068215;28;20045;-65
2022/05/01 05:03:41;;;;;;;6.90;2.38;;;10.20;78.60;;;;;;5070556;28;20036;-66
2022/05/01 05:06:08;;;;;;;4.85;2.90;;;10.20;78.60;;;;;;5070453;28;20094;-63
2022/05/01 05:11:19;;;;;;;4.68;2.67;;;10.20;78.80;;;;;;5071691;28;20072;-65
2022/05/01 05:13:47;;;;;;;6.22;2.90;;;10.30;78.80;;;;;;5053400;28;20045;-64
2022/05/01 05:16:14;;;;;;;5.47;2.88;;;10.30;78.90;;;;;;5053499;28;20127;-64
2022/05/01 05:18:42;;;;;;;3.83;2.13;;;10.30;78.80;;;;;;5068029;28;20071;-65
2022/05/01 05:21:09;;;;;;;5.32;2.70;;;10.30;78.80;;;;;;5070042;28;20110;-65
2022/05/01 05:23:36;;;;;;;5.22;2.60;;;10.30;78.80;;;;;;5070886;28;20044;-65
2022/05/01 05:26:03;;;;;;;6.10;2.50;;;10.40;78.80;;;;;;5072095;28;20470;-65
2022/05/01 05:28:30;;;;;;;5.13;2.47;;;10.50;78.60;;;;;;5071110;28;20056;-65
2022/05/01 05:30:58;;;;;;;6.47;3.10;;;10.50;78.40;;;;;;5070083;28;20051;-65
2022/05/01 05:33:25;;;;;;;7.03;3.03;;;10.60;78.30;;;;;;5070863;28;20053;-63
2022/05/01 05:35:52;;;;;;;6.57;3.13;;;10.60;78.00;;;;;;5068945;28;20485;-64
2022/05/01 05:38:19;;;;;;;6.25;2.95;;;10.70;77.80;;;;;;5070425;28;20045;-65
2022/05/01 05:40:46;;;;;;;4.75;2.83;;;10.70;77.70;;;;;;5070325;28;20041;-65
2022/05/01 05:43:13;;;;;;;9.10;3.75;;;10.70;77.60;;;;;;5070073;28;20056;-65
2022/05/01 05:45:40;;;;;;;6.70;3.22;;;10.80;77.50;;;;;;5071187;28;20036;-65
2022/05/01 05:48:09;;;;;;;7.30;3.60;;;10.80;77.30;;;;;;5068053;28;20045;-63
2022/05/01 05:50:36;;;;;;;6.82;3.50;;;10.90;77.20;;;;;;5069439;28;20147;-64
2022/05/01 05:53:03;;;;;;;6.32;3.28;;;10.90;77.10;;;;;;5070065;28;20697;-64
2022/05/01 05:55:33;;;;;;;9.77;3.67;;;11.00;77.00;;;;;;5069438;28;20117;-67
2022/05/01 05:58:00;;;;;;;5.82;3.53;;;11.00;77.10;;;;;;5068692;28;20044;-66
2022/05/01 06:00:28;;;;;;;8.25;3.60;;;11.00;77.10;;;;;;5065439;28;20047;-66
2022/05/01 06:02:55;;;;;;;7.38;3.00;;;11.00;77.10;;;;;;5069065;28;20127;-66
2022/05/01 06:05:23;;;;;;;7.88;3.60;;;11.10;77.10;;;;;;5068029;28;20037;-65
2022/05/01 06:07:52;;;;;;;9.98;3.25;;;11.10;77.00;;;;;;5069364;28;20139;-65
2022/05/01 06:10:19;;;;;;;5.80;3.10;;;11.20;76.60;;;;;;5068815;28;20131;-66
2022/05/01 06:12:47;;;;;;;7.93;3.60;;;11.20;76.60;;;;;;5044016;28;20098;-64
2022/05/01 06:15:14;;;;;;;7.72;3.92;;;11.20;76.60;;;;;;5068558;28;20056;-66
2022/05/01 06:17:43;;;;;;;5.90;3.38;;;11.20;76.50;;;;;;5068888;28;20083;-65
2022/05/01 06:20:11;;;;;;;9.88;3.65;;;11.30;76.50;;;;;;5069955;28;20049;-65
2022/05/01 06:22:39;;;;;;;7.53;3.70;;;11.30;76.50;;;;;;5068450;28;20117;-64
2022/05/01 06:25:07;;;;;;;7.15;3.33;;;11.30;76.40;;;;;;5067488;28;20052;-66
2022/05/01 06:27:35;;;;;;;10.32;4.05;;;11.40;76.40;;;;;;5067952;28;20106;-66
2022/05/01 06:30:02;;;;;;;7.78;3.53;;;11.40;76.50;;;;;;5068083;28;20075;-65
2022/05/01 06:32:29;;;;;;;6.32;3.10;;;11.40;76.50;;;;;;5068582;28;20135;-65
2022/05/01 06:34:56;;;;;;;10.30;3.60;;;11.40;76.30;;;;;;5069090;28;20456;-65
2022/05/01 06:37:23;;;;;;;7.05;3.72;;;11.50;76.00;;;;;;5068276;28;20041;-66
2022/05/01 06:39:52;;;;;;;8.15;3.55;;;11.60;75.90;;;;;;5068991;28;20059;-65
2022/05/01 06:42:19;;;;;;;10.65;3.60;;;11.60;75.80;;;;;;5068693;28;20060;-65
2022/05/01 06:44:46;;;;;;;7.70;3.53;;;11.70;75.50;;;;;;5068594;28;20098;-65
2022/05/01 06:47:14;;;;;;;8.60;3.78;;;11.70;75.30;;;;;;5070007;28;20402;-64
2022/05/01 06:49:41;;;;;;;6.60;3.53;;;11.70;75.20;;;;;;5067596;28;20047;-64
2022/05/01 06:52:08;;;;;;;8.07;4.07;;;11.70;75.20;;;;;;5070706;28;20048;-65
2022/05/01 06:54:35;;;;;;;7.95;4.00;;;11.90;74.80;;;;;;5071760;28;20397;-64
2022/05/01 06:57:04;;;;;;;6.82;3.33;;;11.90;74.60;;;;;;5073749;28;20048;-64
2022/05/01 06:59:31;;;;;;;7.85;3.88;;;11.90;74.50;;;;;;5072317;28;20508;-64
2022/05/01 07:01:58;;;;;;;7.65;4.30;;;12.00;74.30;;;;;;5071066;28;20041;-65
2022/05/01 07:04:25;;;;;;;8.27;4.00;;;11.90;74.60;;;;;;5073437;28;20040;-65
2022/05/01 07:06:52;;;;;;;9.77;4.05;;;12.00;74.60;;;;;;5073555;28;20094;-65
2022/05/01 07:09:18;;;;;;;8.93;3.58;;;12.00;74.50;;;;;;5070789;28;20052;-65
2022/05/01 07:11:46;;;;;;;9.63;4.32;;;12.10;74.40;;;;;;5074481;28;20051;-65
2022/05/01 07:14:14;;;;;;;7.95;3.67;;;12.20;74.00;;;;;;5072839;28;20506;-66
2022/05/01 07:16:41;;;;;;;12.30;4.75;;;12.20;73.80;;;;;;5072534;28;20044;-65
2022/05/01 07:19:08;;;;;;;8.10;3.85;;;12.30;73.90;;;;;;5071968;28;20123;-65
2022/05/01 07:21:35;;;;;;;6.68;3.40;;;12.30;73.70;;;;;;5054718;28;20401;-64
2022/05/01 07:24:02;;;;;;;7.40;3.70;;;12.30;73.40;;;;;;5072623;28;20052;-65
2022/05/01 07:26:33;;;;;;;9.75;3.38;;;12.40;73.50;;;;;;5072858;28;20051;-65
2022/05/01 07:29:00;;;;;;;8.13;3.60;;;12.50;73.00;;;;;;5071489;28;20106;-65
2022/05/01 07:31:29;;;;;;;5.55;3.30;;;12.50;72.90;;;;;;5072036;28;20049;-65
2022/05/01 07:33:57;;;;;;;7.10;3.70;;;12.60;73.00;;;;;;5070343;28;20556;-66
2022/05/01 07:36:24;;;;;;;8.93;3.95;;;12.60;72.90;;;;;;5071092;28;20047;-65
2022/05/01 07:38:51;;;;;;;9.60;3.53;;;12.70;72.70;;;;;;5071623;28;20444;-67
2022/05/01 07:41:19;;;;;;;9.45;3.58;;;12.70;72.50;;;;;;5070891;28;20144;-67
2022/05/01 07:43:46;;;;;;;8.45;3.65;;;12.70;72.10;;;;;;5072059;28;20072;-65
2022/05/01 07:46:14;;;;;;;9.25;3.70;;;12.70;72.20;;;;;;5071200;28;20041;-65
2022/05/01 07:48:42;;;;;;;8.50;3.85;;;12.70;72.10;;;;;;5072797;28;20051;-65
2022/05/01 07:51:09;;;;;;;8.00;3.55;;;12.70;72.20;;;;;;5071541;28;20493;-67
2022/05/01 07:53:36;;;;;;;7.85;3.70;;;12.80;71.90;;;;;;5071915;28;20071;-68
2022/05/01 07:56:03;;;;;;;6.20;3.30;;;12.80;71.90;;;;;;5071650;28;20048;-66
2022/05/01 07:58:30;;;;;;;6.07;3.38;;;12.90;71.60;;;;;;5071298;28;20135;-65
2022/05/01 08:00:59;;;;;;;8.38;3.45;;;13.00;71.20;;;;;;5065567;28;20122;-66
2022/05/01 08:06:12;;;;;;;7.35;3.53;;;13.10;71.20;;;;;;5069276;28;20422;-68
2022/05/01 08:08:39;;;;;;;10.82;3.78;;;13.10;71.20;;;;;;5070987;28;20121;-66
2022/05/01 08:11:07;;;;;;;7.70;3.38;;;13.20;70.90;;;;;;5069779;28;20048;-67
2022/05/01 08:13:34;;;;;;;7.78;3.58;;;13.30;70.90;;;;;;5071879;28;20071;-66
2022/05/01 08:16:01;;;;;;;8.00;3.78;;;13.30;71.30;;;;;;5071439;28;20143;-65
2022/05/01 08:21:16;;;;;;;8.15;3.25;;;13.50;70.80;;;;;;5072303;28;20051;-67
2022/05/01 08:23:43;;;;;;;10.23;3.67;;;13.60;70.20;;;;;;5072677;28;20047;-66
2022/05/01 08:26:13;;;;;;;7.43;3.38;;;13.60;70.10;;;;;;5069188;28;20482;-65
2022/05/01 08:28:41;;;;;;;7.43;3.30;;;13.60;70.30;;;;;;5073116;28;20143;-66
2022/05/01 08:31:09;;;;;;;5.53;3.17;;;13.60;70.60;;;;;;5071032;28;20123;-66
2022/05/01 08:33:37;;;;;;;8.90;4.15;;;13.70;70.50;;;;;;5071265;28;20045;-65
2022/05/01 08:36:05;;;;;;;7.03;3.35;;;13.70;70.50;;;;;;5072165;28;20071;-65
2022/05/01 08:38:35;;;;;;;8.45;3.20;;;13.70;70.10;;;;;;5071770;28;20124;-66
2022/05/01 08:41:03;;;;;;;6.53;3.50;;;13.80;70.10;;;;;;5071034;28;20037;-66
2022/05/01 08:43:31;;;;;;;7.38;3.63;;;13.80;70.30;;;;;;5071109;28;20055;-65
2022/05/01 08:46:27;;;;;;;6.88;3.33;;;13.90;70.20;;;;;;5071054;28;20116;-64
2022/05/01 08:49:01;;;;;;;8.57;3.72;;;14.00;69.80;;;;;;5071533;28;20044;-67
2022/05/01 08:51:30;;;;;;;8.73;3.70;;;14.10;69.10;;;;;;5070406;28;20102;-65
2022/05/01 08:54:00;;;;;;;6.18;3.10;;;14.30;69.30;;;;;;5072397;28;20044;-65
2022/05/01 08:56:27;;;;;;;6.93;3.33;;;14.40;68.90;;;;;;5070603;28;20051;-65
2022/05/01 08:58:54;;;;;;;7.22;3.47;;;14.40;68.60;;;;;;5071548;28;20064;-65
2022/05/01 09:01:22;;;;;;;10.02;3.67;;;14.60;68.10;;;;;;5064506;28;20045;-66
2022/05/01 09:03:49;;;;;;;10.07;3.63;;;14.70;68.20;;;;;;5071492;28;20512;-65
2022/05/01 09:06:16;;;;;;;10.15;3.97;;;14.80;67.90;;;;;;5070705;28;20119;-65
2022/05/01 09:08:44;;;;;;;7.28;3.58;;;15.00;68.30;;;;;;5070412;28;20068;-64
2022/05/01 09:13:56;;;;;;;7.28;3.85;;;15.20;67.50;;;;;;5069571;28;20041;-64
2022/05/01 09:16:23;;;;;;;10.10;4.18;;;15.40;67.60;;;;;;5068893;28;20040;-66
2022/05/01 09:18:50;;;;;;;10.25;4.13;;;15.60;67.00;;;;;;5071041;28;20483;-66
2022/05/01 09:21:17;;;;;;;8.23;3.53;;;15.60;66.70;;;;;;5069254;28;20044;-67
2022/05/01 09:23:46;;;;;;;9.60;3.45;;;15.80;66.40;;;;;;5070120;28;20060;-68
2022/05/01 09:26:16;;;;;;;8.10;4.10;;;15.80;65.40;;;;;;5068681;28;20040;-67
2022/05/01 09:28:49;;;;;;;6.60;3.40;;;15.90;65.70;;;;;;5068922;28;20128;-67
2022/05/01 09:31:17;;;;;;;6.32;2.88;;;16.10;65.10;;;;;;5070782;28;20033;-65
2022/05/01 09:33:44;;;;;;;9.45;3.40;;;16.10;64.10;;;;;;5068442;28;20051;-68
2022/05/01 09:36:36;;;;;;;10.15;3.95;;;16.20;64.50;;;;;;5069765;28;20052;-67
2022/05/01 09:39:05;;;;;;;6.15;3.35;;;16.30;64.20;;;;;;5058437;28;20048;-66
2022/05/01 09:41:33;;;;;;;7.05;3.15;;;16.30;63.30;;;;;;5069031;28;20047;-67
2022/05/01 09:44:13;;;;;;;4.97;2.50;;;16.40;63.80;;;;;;5070331;28;20128;-65
2022/05/01 09:46:40;;;;;;;5.32;2.63;;;16.40;62.90;;;;;;5068111;28;20074;-66
2022/05/01 09:49:09;;;;;;;5.95;3.00;;;16.50;63.10;;;;;;5069506;28;20082;-66
2022/05/01 09:51:38;;;;;;;5.78;2.72;;;16.60;61.70;;;;;;5068780;28;20046;-66
2022/05/01 09:54:06;;;;;;;6.82;2.53;;;16.60;61.70;;;;;;5070004;28;20071;-66
2022/05/01 09:56:48;;;;;;;5.55;2.60;;;16.70;62.50;;;;;;5068469;28;20040;-67
2022/05/01 09:59:16;;;;;;;5.68;2.65;;;16.80;62.40;;;;;;5070209;28;20474;-68
2022/05/01 10:01:55;;;;;;;3.78;1.90;;;16.90;61.60;;;;;;5067492;28;20472;-68
2022/05/01 10:04:24;;;;;;;4.57;2.53;;;17.00;62.30;;;;;;5068949;28;20048;-66
2022/05/01 10:06:53;;;;;;;6.18;2.28;;;17.10;62.20;;;;;;5051993;28;20048;-65
2022/05/01 10:09:22;;;;;;;5.50;2.92;;;17.10;60.90;;;;;;5069595;28;20057;-66
2022/05/01 10:11:54;;;;;;;5.83;3.23;;;17.10;60.90;;;;;;5068415;28;20053;-66
2022/05/01 10:14:21;;;;;;;6.80;3.08;;;17.20;61.10;;;;;;5069413;28;20056;-66
2022/05/01 10:16:50;;;;;;;6.53;3.08;;;17.30;61.00;;;;;;5070690;28;20041;-65
2022/05/01 10:19:18;;;;;;;8.60;3.85;;;17.30;61.00;;;;;;5069984;28;20098;-66
2022/05/01 10:21:47;;;;;;;6.40;3.17;;;17.50;61.70;;;;;;5070059;28;20041;-65
2022/05/01 10:24:15;;;;;;;4.47;2.25;;;17.60;60.40;;;;;;5067340;28;20409;-66
2022/05/01 10:26:48;;;;;;;6.15;3.53;;;17.60;59.10;;;;;;5068842;28;20135;-65
2022/05/01 10:29:35;;;;;;;7.85;2.85;;;17.60;59.70;;;;;;5069486;28;20504;-66
2022/05/01 10:32:26;;;;;;;7.68;3.20;;;17.60;59.60;;;;;;5068797;28;20048;-66
2022/05/01 10:35:14;;;;;;;11.20;4.18;;;17.60;59.90;;;;;;5069375;28;20470;-67
2022/05/01 10:38:05;;;;;;;10.90;5.10;;;17.70;60.30;;;;;;5069339;28;20121;-66
2022/05/01 10:40:33;;;;;;;8.80;3.00;;;17.80;59.70;;;;;;5068223;28;20159;-66
2022/05/01 10:43:25;;;;;;;9.30;4.88;;;17.90;58.20;;;;;;5068271;28;20125;-66
2022/05/01 10:45:54;;;;;;;9.27;4.88;;;17.90;59.50;;;;;;5070256;28;20049;-65
2022/05/01 10:48:38;;;;;;;9.38;4.35;;;17.90;59.80;;;;;;5069201;28;20045;-66
2022/05/01 10:51:42;;;;;;;6.65;3.33;;;18.00;59.20;;;;;;5068493;28;20067;-67
2022/05/01 10:54:33;;;;;;;8.88;3.88;;;18.00;58.60;;;;;;5067616;28;20044;-68
2022/05/01 10:57:12;;;;;;;7.10;3.15;;;18.10;58.80;;;;;;5067096;28;20049;-66
2022/05/01 10:59:42;;;;;;;5.25;2.42;;;18.10;58.10;;;;;;5041902;28;20144;-68
2022/05/01 11:02:35;;;;;;;5.22;2.17;;;18.20;57.40;;;;;;5065651;28;20040;-67
2022/05/01 11:05:05;;;;;;;7.53;2.90;;;18.20;57.80;;;;;;5068246;28;20555;-68
2022/05/01 11:07:35;;;;;;;6.10;2.72;;;18.30;58.00;;;;;;5068081;28;20048;-66
2022/05/01 11:10:06;;;;;;;5.45;2.38;;;18.30;57.90;;;;;;5068793;28;20048;-66
2022/05/01 11:12:35;;;;;;;4.05;2.25;;;18.30;58.10;;;;;;5068826;28;20125;-66
2022/05/01 11:15:03;;;;;;;5.38;2.25;;;18.40;57.30;;;;;;5067935;28;20060;-68
2022/05/01 11:17:56;;;;;;;3.00;1.90;;;18.50;57.40;;;;;;5066261;28;20810;-66
2022/05/01 11:20:34;;;;;;;6.25;2.22;;;18.50;56.70;;;;;;5069350;28;20044;-68
2022/05/01 11:23:27;;;;;;;4.53;2.10;;;18.60;56.30;;;;;;5068481;28;20045;-68
2022/05/01 11:26:10;;;;;;;3.67;2.05;;;18.60;55.90;;;;;;5067350;28;20128;-69
2022/05/01 11:29:08;;;;;;;7.70;2.80;;;18.60;55.80;;;;;;5068454;28;20047;-66
2022/05/01 11:31:49;;;;;;;5.68;2.53;;;18.60;57.00;;;;;;5067570;28;20044;-66
2022/05/01 11:34:51;;;;;;;7.82;3.15;;;18.60;56.40;;;;;;5068159;28;20064;-66
2022/05/01 11:37:19;;;;;;;6.50;2.70;;;18.70;56.60;;;;;;5044243;28;20072;-66
2022/05/01 11:40:20;;;;;;;7.63;2.78;;;18.70;55.40;;;;;;5071572;28;20064;-67
2022/05/01 11:42:47;;;;;;;6.57;3.15;;;18.70;54.90;;;;;;5072958;28;20056;-65
2022/05/01 11:45:14;;;;;;;6.20;2.60;;;18.60;54.90;;;;;;5072330;28;20044;-67
2022/05/01 11:47:43;;;;;;;4.53;2.50;;;18.60;54.80;;;;;;5073932;28;20046;-66
2022/05/01 11:50:23;;;;;;;4.53;2.65;;;18.50;54.80;;;;;;5072240;28;20465;-67
2022/05/01 11:52:54;;;;;;;6.97;2.78;;;18.60;54.70;;;;;;5071100;28;20052;-66
2022/05/01 12:02:24;;;;;;;4.68;2.63;;;18.60;54.50;;;;;;5062529;28;20391;-66
2022/05/01 12:03:40;;;;;;;3.67;2.10;;;18.80;54.80;;;;;;5072911;28;20055;-67
2022/05/01 12:06:09;;;;;;;7.18;2.75;;;18.80;54.80;;;;;;5071428;28;20037;-66
2022/05/01 12:08:49;;;;;;;6.22;3.22;;;18.90;54.80;;;;;;5072825;28;20067;-67
2022/05/01 12:11:28;;;;;;;5.70;2.90;;;18.90;54.80;;;;;;5070017;28;20521;-67
2022/05/01 12:14:07;;;;;;;6.85;3.50;;;18.90;55.20;;;;;;5072205;28;20041;-66
2022/05/01 12:16:34;;;;;;;6.60;3.33;;;18.90;55.00;;;;;;5070760;28;20141;-66
2022/05/01 12:19:03;;;;;;;8.98;3.08;;;18.90;54.60;;;;;;5072113;28;20048;-67
2022/05/01 12:21:33;;;;;;;5.70;3.20;;;18.80;54.10;;;;;;5070493;28;20044;-67
2022/05/01 12:24:08;;;;;;;6.25;3.28;;;18.80;54.50;;;;;;5071721;28;20051;-68
2022/05/01 12:26:38;;;;;;;5.10;3.30;;;18.70;54.00;;;;;;5071268;28;20123;-67
2022/05/01 12:29:09;;;;;;;;;;;18.70;53.70;;;;;;5072618;28;20044;-68
2022/05/01 12:31:55;;;;;;;7.70;2.95;;;18.60;54.20;;;;;;5069733;28;19987;-68
2022/05/01 12:34:26;;;;;;;5.57;3.20;;;18.50;54.10;;;;;;5071817;28;20051;-67
2022/05/01 12:36:56;;;;;;;5.43;3.10;;;18.50;53.90;;;;;;5071094;28;20054;-68
2022/05/01 12:39:24;;;;;;;6.13;3.22;;;18.50;54.20;;;;;;5070563;28;20040;-66
2022/05/01 12:45:10;;;;;;;5.10;3.28;;;18.60;54.50;;;;;;5071252;28;20559;-66
2022/05/01 12:47:39;;;;;;;9.00;2.83;;;18.60;54.00;;;;;;5070676;28;20147;-66
2022/05/01 12:50:08;;;;;;;6.70;3.38;;;18.60;54.20;;;;;;5070449;28;20464;-65
2022/05/01 12:52:38;;;;;;;5.68;3.50;;;18.60;54.10;;;;;;5070371;28;20485;-66
2022/05/01 12:55:08;;;;;;;4.90;2.88;;;18.50;54.30;;;;;;5069956;28;20059;-69
2022/05/01 12:57:36;;;;;;;4.25;2.53;;;18.50;54.50;;;;;;5068857;28;20436;-67
2022/05/01 13:00:05;;;;;;;7.82;2.75;;;18.50;54.30;;;;;;5070155;28;20091;-70
2022/05/01 13:02:32;;;;;;;5.53;3.08;;;18.50;54.50;;;;;;5069126;28;20559;-66
2022/05/01 13:05:02;;;;;;;6.40;3.00;;;18.50;54.50;;;;;;5070735;28;20098;-66
2022/05/01 13:07:29;;;;;;;6.28;3.08;;;18.50;54.50;;;;;;5065686;28;20072;-66
2022/05/01 13:09:58;;;;;;;5.13;2.38;;;18.60;54.30;;;;;;5069024;28;20086;-66
2022/05/01 13:12:30;;;;;;;5.03;2.35;;;18.60;54.40;;;;;;5069501;28;20048;-67
2022/05/01 13:14:59;;;;;;;5.70;3.08;;;18.60;54.70;;;;;;5070281;28;20072;-67
2022/05/01 13:17:28;;;;;;;4.60;2.92;;;18.60;54.60;;;;;;5068793;28;20657;-67
2022/05/01 13:19:56;;;;;;;4.07;2.60;;;18.60;54.50;;;;;;5070619;28;20452;-67
2022/05/01 13:22:23;;;;;;;6.43;3.10;;;18.60;54.50;;;;;;5070951;28;20486;-65
2022/05/01 13:24:53;;;;;;;4.20;2.60;;;18.70;54.60;;;;;;5069190;28;20056;-65
2022/05/01 13:27:23;;;;;;;4.03;2.25;;;18.70;54.60;;;;;;5071427;28;20055;-65
2022/05/01 13:29:52;;;;;;;7.18;3.03;;;18.80;54.60;;;;;;5069879;28;20040;-66
2022/05/01 13:32:19;;;;;;;4.47;2.35;;;18.70;54.70;;;;;;5070503;28;20093;-65